Time;durP1;ratioP1;P1;durP2;ratioP2;P2;SDS_P1;SDS_P2;PMS_P1;PMS_P2;Temp;Humidity;BMP_temperature;BMP_pressure;BME280_temperature;BME280_humidity;BME280_pressure;Samples;Min_cycle;Max_cycle;Signal;HPM_P1;HPM_P2
2023/03/27 00:01:10;;;;;;;;;;;7.00;99.90;;;;;;4956159;28;20563;-79
2023/03/27 00:03:38;;;;;;;;;;;7.00;99.90;;;;;;4960138;28;19933;-78
2023/03/27 00:06:06;;;;;;;;;;;7.00;99.90;;;;;;4959821;28;19926;-77
2023/03/27 00:08:33;;;;;;;;;;;6.90;99.90;;;;;;4959334;28;19926;-78
2023/03/27 00:11:00;;;;;;;;;;;6.90;99.90;;;;;;4964149;28;19936;-78
2023/03/27 00:13:28;;;;;;;;;;;6.90;99.90;;;;;;4964811;28;19934;-78
2023/03/27 00:15:55;;;;;;;;;;;6.90;99.90;;;;;;4966203;28;20025;-79
2023/03/27 00:18:23;;;;;;;;;;;6.90;99.90;;;;;;4961004;28;19930;-79
2023/03/27 00:20:51;;;;;;;;;;;6.90;99.90;;;;;;4965031;28;19930;-79
2023/03/27 00:23:18;;;;;;;;;;;6.90;99.90;;;;;;4971545;28;19959;-76
2023/03/27 00:25:47;;;;;;;;;;;6.90;99.90;;;;;;4960421;28;20005;-76
2023/03/27 00:28:14;;;;;;;;;;;6.90;99.90;;;;;;4966735;28;19973;-76
2023/03/27 00:30:41;;;;;;;;;;;6.90;99.90;;;;;;4970552;28;19926;-76
2023/03/27 00:33:08;;;;;;;;;;;6.90;99.90;;;;;;4980068;28;20389;-76
2023/03/27 00:35:35;;;;;;;;;;;6.90;99.90;;;;;;4969294;28;19926;-76
2023/03/27 00:38:03;;;;;;;;;;;6.90;99.90;;;;;;4964673;28;19980;-77
2023/03/27 00:40:31;;;;;;;;;;;6.90;99.90;;;;;;4970603;28;19972;-76
2023/03/27 00:43:01;;;;;;;;;;;6.90;99.90;;;;;;4971783;28;20411;-76
2023/03/27 00:45:30;;;;;;;;;;;6.80;99.90;;;;;;4969799;28;19977;-76
2023/03/27 00:48:00;;;;;;;;;;;6.80;99.90;;;;;;4968592;28;20009;-76
2023/03/27 00:50:29;;;;;;;;;;;6.80;99.90;;;;;;4964495;28;19938;-76
2023/03/27 00:52:58;;;;;;;;;;;6.80;99.90;;;;;;4967634;28;19930;-78
2023/03/27 00:55:28;;;;;;;;;;;6.80;99.90;;;;;;4961292;28;19930;-78
2023/03/27 00:57:59;;;;;;;;;;;6.80;99.90;;;;;;4956736;28;19966;-79
2023/03/27 01:00:26;;;;;;;;;;;6.80;99.90;;;;;;4964615;28;19965;-79
2023/03/27 01:02:54;;;;;;;;;;;6.70;99.90;;;;;;4969222;28;19934;-78
2023/03/27 01:05:21;;;;;;;;;;;6.70;99.90;;;;;;4964896;28;20451;-79
2023/03/27 01:07:51;;;;;;;;;;;6.70;99.90;;;;;;4963424;28;19969;-78
2023/03/27 01:10:18;;;;;;;;;;;6.70;99.90;;;;;;4962026;28;19926;-78
2023/03/27 01:12:52;;;;;;;;;;;6.70;99.90;;;;;;4965581;28;19953;-79
2023/03/27 01:15:27;;;;;;;;;;;6.70;99.90;;;;;;4966512;28;20388;-76
2023/03/27 01:18:00;;;;;;;;;;;6.70;99.90;;;;;;4967782;28;19989;-76
2023/03/27 01:20:54;;;;;;;;;;;6.70;99.90;;;;;;4968983;28;19996;-78
2023/03/27 01:23:48;;;;;;;;;;;6.70;99.90;;;;;;4930679;28;19926;-79
2023/03/27 01:26:46;;;;;;;;;;;6.70;99.90;;;;;;4966885;28;20293;-79
2023/03/27 01:29:18;;;;;;;;;;;6.70;99.90;;;;;;4966423;28;19934;-79
2023/03/27 01:31:53;;;;;;;;;;;6.60;99.90;;;;;;4966065;28;20015;-78
2023/03/27 01:34:35;;;;;;;;;;;6.70;99.90;;;;;;4965535;28;20340;-80
2023/03/27 01:37:17;;;;;;;;;;;6.60;99.90;;;;;;4963301;28;19926;-79
2023/03/27 01:39:48;;;;;;;;;;;6.60;99.90;;;;;;4963145;28;19934;-79
2023/03/27 01:42:18;;;;;;;;;;;6.60;99.90;;;;;;4979282;28;19941;-79
2023/03/27 01:44:47;;;;;;;;;;;6.60;99.90;;;;;;4966873;28;20024;-79
2023/03/27 01:47:17;;;;;;;;;;;6.60;99.90;;;;;;4966920;28;19949;-78
2023/03/27 01:49:48;;;;;;;;;;;6.60;99.90;;;;;;4962483;28;20021;-79
2023/03/27 01:52:18;;;;;;;;;;;6.60;99.90;;;;;;4966030;28;20305;-78
2023/03/27 01:54:48;;;;;;;;;;;6.60;99.90;;;;;;4970715;28;20418;-80
2023/03/27 01:57:19;;;;;;;;;;;6.60;99.90;;;;;;4961013;28;19958;-79
2023/03/27 01:59:48;;;;;;;;;;;6.60;99.90;;;;;;4961423;28;19957;-79
2023/03/27 02:02:18;;;;;;;;;;;6.50;99.90;;;;;;4965730;28;19977;-78
2023/03/27 02:04:52;;;;;;;;;;;6.50;99.90;;;;;;4969145;28;20217;-79
2023/03/27 02:07:23;;;;;;;;;;;6.50;99.90;;;;;;4964178;28;19926;-79
2023/03/27 02:09:50;;;;;;;;;;;6.50;99.90;;;;;;4959955;28;20467;-78
2023/03/27 02:12:21;;;;;;;;;;;6.40;99.90;;;;;;4960403;28;20380;-78
2023/03/27 02:14:51;;;;;;;;;;;6.40;99.90;;;;;;4963481;28;20336;-79
2023/03/27 02:17:19;;;;;;;;;;;6.40;99.90;;;;;;4961450;28;19926;-79
2023/03/27 02:19:48;;;;;;;;;;;6.40;99.90;;;;;;4975148;28;19926;-79
2023/03/27 02:22:15;;;;;;;;;;;6.40;99.90;;;;;;4960394;28;20016;-79
2023/03/27 02:24:47;;;;;;;;;;;6.40;99.90;;;;;;4959382;28;20595;-79
2023/03/27 02:27:19;;;;;;;;;;;6.40;99.90;;;;;;4967106;28;19936;-79
2023/03/27 02:29:52;;;;;;;;;;;6.40;99.90;;;;;;4968280;28;19926;-79
2023/03/27 02:32:25;;;;;;;;;;;6.40;99.90;;;;;;4963137;28;19933;-79
2023/03/27 02:35:01;;;;;;;;;;;6.40;99.90;;;;;;4963620;28;19926;-79
2023/03/27 02:37:35;;;;;;;;;;;6.30;99.90;;;;;;4960296;28;19930;-78
2023/03/27 02:40:21;;;;;;;;;;;6.30;99.90;;;;;;4966484;28;19940;-79
2023/03/27 02:42:57;;;;;;;;;;;6.30;99.90;;;;;;4958379;28;20013;-78
2023/03/27 02:45:30;;;;;;;;;;;6.30;99.90;;;;;;4979680;28;20049;-78
2023/03/27 02:48:00;;;;;;;;;;;6.20;99.90;;;;;;4964997;28;20081;-79
2023/03/27 02:50:30;;;;;;;;;;;6.20;99.90;;;;;;4962858;28;19974;-79
2023/03/27 02:53:05;;;;;;;;;;;6.20;99.90;;;;;;4960499;28;19930;-79
2023/03/27 02:55:34;;;;;;;;;;;6.20;99.90;;;;;;4967742;28;19998;-79
2023/03/27 02:58:04;;;;;;;;;;;6.20;99.90;;;;;;4964236;28;19926;-79
2023/03/27 03:00:40;;;;;;;;;;;6.20;99.90;;;;;;4963343;28;20462;-79
2023/03/27 03:03:26;;;;;;;;;;;6.10;99.90;;;;;;4964778;28;20344;-78
2023/03/27 03:05:59;;;;;;;;;;;6.10;99.90;;;;;;4966099;28;20388;-79
2023/03/27 03:08:29;;;;;;;;;;;6.00;99.90;;;;;;4963662;28;19973;-79
2023/03/27 03:11:02;;;;;;;;;;;6.00;99.90;;;;;;4963471;28;20464;-79
2023/03/27 03:13:29;;;;;;;;;;;6.00;99.90;;;;;;4964589;28;19926;-79
2023/03/27 03:15:57;;;;;;;;;;;5.90;99.90;;;;;;4964764;28;19985;-78
2023/03/27 03:18:24;;;;;;;;;;;5.90;99.90;;;;;;4962337;28;19981;-79
2023/03/27 03:20:52;;;;;;;;;;;5.90;99.90;;;;;;4982880;28;20444;-79
2023/03/27 03:23:20;;;;;;;;;;;5.90;99.90;;;;;;4965138;28;20017;-78
2023/03/27 03:25:51;;;;;;;;;;;5.90;99.90;;;;;;4964108;28;19926;-79
2023/03/27 03:28:18;;;;;;;;;;;5.80;99.90;;;;;;4972475;28;20418;-80
2023/03/27 03:30:47;;;;;;;;;;;5.80;99.90;;;;;;4955247;28;19962;-79
2023/03/27 03:33:18;;;;;;;;;;;5.80;99.90;;;;;;4960057;28;20412;-79
2023/03/27 03:35:50;;;;;;;;;;;5.80;99.90;;;;;;4953017;28;19941;-79
2023/03/27 03:38:28;;;;;;;;;;;5.70;99.90;;;;;;4953968;28;20436;-83
2023/03/27 03:40:56;;;;;;;;;;;5.70;99.90;;;;;;4950756;28;19941;-79
2023/03/27 03:43:24;;;;;;;;;;;5.70;99.90;;;;;;4958800;28;20423;-78
2023/03/27 03:45:51;;;;;;;;;;;5.70;99.90;;;;;;4966057;28;19926;-79
2023/03/27 03:48:19;;;;;;;;;;;5.60;99.90;;;;;;4960798;28;20509;-77
2023/03/27 03:50:47;;;;;;;;;;;5.60;99.90;;;;;;4952692;28;20384;-80
2023/03/27 03:53:14;;;;;;;;;;;5.60;99.90;;;;;;4959236;28;19938;-83
2023/03/27 03:55:41;;;;;;;;;;;5.60;99.90;;;;;;4959518;28;20296;-81
2023/03/27 03:58:08;;;;;;;;;;;5.60;99.90;;;;;;4972892;28;19930;-79
2023/03/27 04:00:37;;;;;;;;;;;5.60;99.90;;;;;;4956432;28;19934;-80
2023/03/27 04:03:07;;;;;;;;;;;5.50;99.90;;;;;;4967983;28;19934;-79
2023/03/27 04:05:37;;;;;;;;;;;5.50;99.90;;;;;;4965014;28;20587;-80
2023/03/27 04:08:06;;;;;;;;;;;5.50;99.90;;;;;;4952891;28;20586;-81
2023/03/27 04:10:33;;;;;;;;;;;5.50;99.90;;;;;;4957030;28;20293;-80
2023/03/27 04:13:03;;;;;;;;;;;5.50;99.90;;;;;;4961406;28;19941;-80
2023/03/27 04:15:32;;;;;;;;;;;5.50;99.90;;;;;;4955322;28;20702;-80
2023/03/27 04:18:38;;;;;;;;;;;5.40;99.90;;;;;;4981748;28;19937;-79
2023/03/27 04:21:13;;;;;;;;;;;5.40;99.90;;;;;;4950410;28;21388;-82
2023/03/27 04:23:40;;;;;;;;;;;5.30;99.90;;;;;;4955452;28;19933;-80
2023/03/27 04:26:07;;;;;;;;;;;5.30;99.90;;;;;;4962505;28;19930;-79
2023/03/27 04:28:54;;;;;;;;;;;5.30;99.90;;;;;;4965497;28;20316;-80
2023/03/27 04:31:45;;;;;;;;;;;5.30;99.90;;;;;;4964979;28;20021;-80
2023/03/27 04:34:32;;;;;;;;;;;5.10;99.90;;;;;;4959653;28;20570;-79
2023/03/27 04:37:26;;;;;;;;;;;5.20;99.90;;;;;;4978275;28;19934;-79
2023/03/27 04:40:10;;;;;;;;;;;5.20;99.90;;;;;;4969773;28;19993;-82
2023/03/27 04:42:41;;;;;;;;;;;5.20;99.90;;;;;;4965838;28;19948;-79
2023/03/27 04:45:09;;;;;;;;;;;5.20;99.90;;;;;;4982235;28;19926;-79
2023/03/27 04:47:37;;;;;;;;;;;5.20;99.90;;;;;;4968619;28;19934;-79
2023/03/27 04:50:05;;;;;;;;;;;5.10;99.90;;;;;;4964580;28;19941;-82
2023/03/27 04:52:33;;;;;;;;;;;5.10;99.90;;;;;;4986102;28;20064;-80
2023/03/27 04:55:01;;;;;;;;;;;5.10;99.90;;;;;;4965744;28;19933;-78
2023/03/27 04:57:29;;;;;;;;;;;5.10;99.90;;;;;;4963026;28;19930;-78
2023/03/27 04:59:59;;;;;;;;;;;5.10;99.90;;;;;;4967373;28;19930;-80
2023/03/27 05:02:44;;;;;;;;;;;5.00;99.90;;;;;;4967147;28;20384;-79
2023/03/27 05:05:20;;;;;;;;;;;5.00;99.90;;;;;;4968848;28;19926;-80
2023/03/27 05:07:49;;;;;;;;;;;5.00;99.90;;;;;;4965846;28;20564;-79
2023/03/27 05:10:22;;;;;;;;;;;5.00;99.90;;;;;;4966849;28;19941;-79
2023/03/27 05:12:51;;;;;;;;;;;4.90;99.90;;;;;;4963380;28;19934;-78
2023/03/27 05:15:18;;;;;;;;;;;4.90;99.90;;;;;;4968753;28;20385;-78
2023/03/27 05:17:51;;;;;;;;;;;4.80;99.90;;;;;;4968057;28;20404;-79
2023/03/27 05:20:20;;;;;;;;;;;4.80;99.90;;;;;;4970246;28;20025;-79
2023/03/27 05:22:49;;;;;;;;;;;4.80;99.90;;;;;;4961971;28;19927;-80
2023/03/27 05:25:38;;;;;;;;;;;4.80;99.90;;;;;;4967764;28;19941;-80
2023/03/27 05:28:09;;;;;;;;;;;4.80;99.90;;;;;;4966620;28;19926;-80
2023/03/27 05:30:36;;;;;;;;;;;4.80;99.90;;;;;;4965803;28;19934;-79
2023/03/27 05:33:22;;;;;;;;;;;4.70;99.90;;;;;;4962135;28;19926;-79
2023/03/27 05:35:51;;;;;;;;;;;4.70;99.90;;;;;;4963429;28;19930;-80
2023/03/27 05:38:19;;;;;;;;;;;4.70;99.90;;;;;;4970799;28;20319;-80
2023/03/27 05:41:24;;;;;;;;;;;4.50;99.90;;;;;;4964768;28;19934;-80
2023/03/27 05:43:51;;;;;;;;;;;4.60;99.90;;;;;;4965788;28;19926;-80
2023/03/27 05:46:20;;;;;;;;;;;4.50;99.90;;;;;;4967213;28;19937;-81
2023/03/27 05:48:52;;;;;;;;;;;4.50;99.90;;;;;;4969413;28;19933;-80
2023/03/27 05:51:19;;;;;;;;;;;4.50;99.90;;;;;;4967739;28;19927;-80
2023/03/27 05:53:48;;;;;;;;;;;4.60;99.90;;;;;;4968537;28;20288;-79
2023/03/27 05:56:25;;;;;;;;;;;4.50;99.90;;;;;;4964408;28;20451;-79
2023/03/27 05:58:55;;;;;;;;;;;4.50;99.90;;;;;;4969080;28;19977;-79
2023/03/27 06:01:24;;;;;;;;;;;4.50;99.90;;;;;;4970490;28;19949;-81
2023/03/27 06:03:54;;;;;;;;;;;4.40;99.90;;;;;;4968717;28;20304;-79
2023/03/27 06:06:25;;;;;;;;;;;4.40;99.90;;;;;;4968865;28;19934;-80
2023/03/27 06:08:58;;;;;;;;;;;4.40;99.90;;;;;;4974984;28;19927;-79
2023/03/27 06:11:26;;;;;;;;;;;4.30;99.90;;;;;;4961825;28;20401;-79
2023/03/27 06:13:53;;;;;;;;;;;4.30;99.90;;;;;;4975150;28;20029;-79
2023/03/27 06:16:26;;;;;;;;;;;4.40;99.90;;;;;;4970326;28;20392;-79
2023/03/27 06:19:22;;;;;;;;;;;4.30;99.90;;;;;;4971105;28;19942;-79
2023/03/27 06:21:51;;;;;;;;;;;4.40;99.90;;;;;;4968896;28;20360;-80
2023/03/27 06:24:19;;;;;;;;;;;4.30;99.90;;;;;;4967745;28;19957;-79
2023/03/27 06:26:46;;;;;;;;;;;4.30;99.90;;;;;;4973334;28;19950;-79
2023/03/27 06:29:13;;;;;;;;;;;4.30;99.90;;;;;;4972504;28;20013;-78
2023/03/27 06:31:46;;;;;;;;;;;4.30;99.90;;;;;;4960333;28;19933;-78
2023/03/27 06:34:25;;;;;;;;;;;4.30;99.90;;;;;;4989857;28;19981;-78
2023/03/27 06:36:58;;;;;;;;;;;4.30;99.90;;;;;;4959948;28;19927;-78
2023/03/27 06:39:28;;;;;;;;;;;4.30;99.90;;;;;;4959239;28;19989;-79
2023/03/27 06:41:55;;;;;;;;;;;4.20;99.90;;;;;;4964559;28;19929;-79
2023/03/27 06:44:31;;;;;;;;;;;4.20;99.90;;;;;;4967018;28;19927;-78
2023/03/27 06:47:37;;;;;;;;;;;4.20;99.90;;;;;;4935546;29;19940;-78
2023/03/27 06:50:23;;;;;;;;;;;4.30;99.90;;;;;;4951023;28;19934;-78
2023/03/27 06:52:50;;;;;;;;;;;4.20;99.90;;;;;;4974782;28;19939;-77
2023/03/27 06:55:39;;;;;;;;;;;4.20;99.90;;;;;;4970211;28;20303;-79
2023/03/27 06:58:07;;;;;;;;;;;4.10;99.90;;;;;;4973294;28;19933;-78
2023/03/27 07:00:36;;;;;;;;;;;4.10;99.90;;;;;;4966785;28;19926;-79
2023/03/27 07:03:18;;;;;;;;;;;4.10;99.90;;;;;;4971016;28;19933;-78
2023/03/27 07:06:00;;;;;;;;;;;4.10;99.90;;;;;;4985372;28;19930;-77
2023/03/27 07:08:32;;;;;;;;;;;4.10;99.90;;;;;;4967300;28;19981;-78
2023/03/27 07:11:02;;;;;;;;;;;4.10;99.90;;;;;;4970894;28;19942;-78
2023/03/27 07:13:29;;;;;;;;;;;4.00;99.90;;;;;;4972924;28;20288;-78
2023/03/27 07:15:59;;;;;;;;;;;4.00;99.90;;;;;;4974815;28;19930;-78
2023/03/27 07:18:27;;;;;;;;;;;3.90;99.90;;;;;;4966844;28;19930;-78
2023/03/27 07:20:55;;;;;;;;;;;3.90;99.90;;;;;;4970469;28;19937;-78
2023/03/27 07:23:24;;;;;;;;;;;4.00;99.90;;;;;;4964664;28;19927;-78
2023/03/27 07:26:01;;;;;;;;;;;4.00;99.90;;;;;;4967232;28;19926;-78
2023/03/27 07:28:54;;;;;;;;;;;4.00;99.90;;;;;;4966336;28;19927;-79
2023/03/27 07:31:22;;;;;;;;;;;3.90;99.90;;;;;;4969840;28;19933;-78
2023/03/27 07:33:50;;;;;;;;;;;4.00;99.90;;;;;;4972380;28;20371;-78
2023/03/27 07:36:19;;;;;;;;;;;4.00;99.90;;;;;;4970269;28;19950;-78
2023/03/27 07:38:53;;;;;;;;;;;4.10;99.90;;;;;;4966795;28;20403;-78
2023/03/27 07:41:25;;;;;;;;;;;4.00;99.90;;;;;;4969976;28;20373;-78
2023/03/27 07:44:15;;;;;;;;;;;4.00;99.90;;;;;;4969938;28;20199;-80
2023/03/27 07:46:53;;;;;;;;;;;3.90;99.90;;;;;;4974697;28;19933;-78
2023/03/27 07:49:20;;;;;;;;;;;4.00;99.90;;;;;;4981209;28;19930;-78
2023/03/27 07:51:47;;;;;;;;;;;4.00;99.90;;;;;;4974147;28;20409;-78
2023/03/27 07:54:16;;;;;;;;;;;4.00;99.90;;;;;;4962378;28;20393;-78
2023/03/27 07:56:50;;;;;;;;;;;4.00;99.90;;;;;;4966087;28;19941;-79
2023/03/27 07:59:32;;;;;;;;;;;4.00;99.90;;;;;;4970346;28;19926;-78
2023/03/27 08:02:11;;;;;;;;;;;3.90;99.90;;;;;;4974201;28;19926;-79
2023/03/27 08:04:40;;;;;;;;;;;3.90;99.90;;;;;;4977365;28;20126;-78
2023/03/27 08:07:10;;;;;;;;;;;3.90;99.90;;;;;;4968841;28;19933;-78
2023/03/27 08:09:39;;;;;;;;;;;3.80;99.90;;;;;;4981165;28;20513;-78
2023/03/27 08:12:07;;;;;;;;;;;3.80;99.90;;;;;;4969625;28;20380;-78
2023/03/27 08:14:39;;;;;;;;;;;3.80;99.90;;;;;;4976289;28;19926;-79
2023/03/27 08:17:16;;;;;;;;;;;3.70;99.90;;;;;;4970024;28;20065;-79
2023/03/27 08:19:45;;;;;;;;;;;3.80;99.90;;;;;;4971893;28;19927;-79
2023/03/27 08:22:12;;;;;;;;;;;3.80;99.90;;;;;;4972837;28;19930;-78
2023/03/27 08:24:59;;;;;;;;;;;3.80;99.90;;;;;;4966591;28;19940;-78
2023/03/27 08:27:28;;;;;;;;;;;3.80;99.90;;;;;;4973191;28;19934;-78
2023/03/27 08:29:56;;;;;;;;;;;3.80;99.90;;;;;;4971589;28;19934;-77
2023/03/27 08:32:23;;;;;;;;;;;3.80;99.90;;;;;;4972771;28;19926;-79
2023/03/27 08:34:52;;;;;;;;;;;3.70;99.90;;;;;;4972457;28;19930;-79
2023/03/27 08:37:22;;;;;;;;;;;3.80;99.90;;;;;;4971699;28;20017;-78
2023/03/27 08:40:24;;;;;;;;;;;3.70;99.90;;;;;;4963152;28;19930;-78
2023/03/27 08:43:04;;;;;;;;;;;3.70;99.90;;;;;;4972843;23;19930;-90
2023/03/27 08:45:37;;;;;;;;;;;3.70;99.90;;;;;;4980841;28;19927;-91
2023/03/27 08:48:07;;;;;;;;;;;3.60;99.90;;;;;;4979236;28;19962;-90
2023/03/27 08:50:38;;;;;;;;;;;3.60;99.90;;;;;;4973495;28;19926;-89
2023/03/27 08:53:22;;;;;;;;;;;3.60;99.90;;;;;;4964530;28;19926;-91
2023/03/27 08:55:49;;;;;;;;;;;3.60;99.90;;;;;;4968979;28;19930;-88
2023/03/27 08:58:37;;;;;;;;;;;3.60;99.90;;;;;;4949971;29;19977;-88
2023/03/27 09:01:19;;;;;;;;;;;3.60;99.90;;;;;;4963958;28;19927;-89
2023/03/27 09:03:49;;;;;;;;;;;3.60;99.90;;;;;;4953203;29;19926;-89
2023/03/27 09:06:20;;;;;;;;;;;3.60;99.90;;;;;;4955505;29;19931;-89
2023/03/27 09:08:56;;;;;;;;;;;3.60;99.90;;;;;;4987364;28;19943;-90
2023/03/27 09:11:32;;;;;;;;;;;3.60;99.90;;;;;;4977179;28;19918;-92
2023/03/27 09:14:07;;;;;;;;;;;3.60;99.90;;;;;;4957547;28;19927;-90
2023/03/27 09:16:39;;;;;;;;;;;3.60;99.90;;;;;;4981582;28;19927;-90
2023/03/27 09:19:10;;;;;;;;;;;3.50;99.90;;;;;;4980192;28;19914;-90
2023/03/27 09:21:40;;;;;;;;;;;3.50;99.90;;;;;;4973403;28;19915;-89
2023/03/27 09:24:14;;;;;;;;;;;3.50;99.90;;;;;;4960104;28;19927;-91
2023/03/27 09:27:03;;;;;;;;;;;3.50;99.90;;;;;;4969802;28;19937;-91
2023/03/27 09:29:44;;;;;;;;;;;3.50;99.90;;;;;;4968916;28;19970;-92
2023/03/27 09:32:31;;;;;;;;;;;3.50;99.90;;;;;;4959129;29;19926;-90
2023/03/27 09:34:58;;;;;;;;;;;3.50;99.90;;;;;;4974732;28;19915;-90
2023/03/27 09:37:27;;;;;;;;;;;3.50;99.90;;;;;;4969770;28;19930;-88
2023/03/27 09:39:55;;;;;;;;;;;3.50;99.90;;;;;;4961075;28;19937;-89
2023/03/27 09:42:30;;;;;;;;;;;3.50;99.90;;;;;;4976603;28;19954;-89
2023/03/27 09:45:02;;;;;;;;;;;3.50;99.90;;;;;;4956227;29;19927;-91
2023/03/27 09:47:34;;;;;;;;;;;3.50;99.90;;;;;;4971341;28;19950;-91
2023/03/27 09:50:18;;;;;;;;;;;3.50;99.90;;;;;;4977066;28;19974;-92
2023/03/27 09:53:06;;;;;;;;;;;3.50;99.90;;;;;;4974885;28;19941;-89
2023/03/27 09:55:51;;;;;;;;;;;3.50;99.90;;;;;;4963666;28;19955;-91
2023/03/27 09:58:25;;;;;;;;;;;3.50;99.90;;;;;;4957755;28;19923;-92
2023/03/27 10:01:07;;;;;;;;;;;3.50;99.90;;;;;;4958229;28;19911;-91
2023/03/27 10:03:37;;;;;;;;;;;3.50;99.90;;;;;;4973609;28;20090;-90
2023/03/27 10:06:08;;;;;;;;;;;3.50;99.90;;;;;;4975955;28;20001;-90
2023/03/27 10:08:49;;;;;;;;;;;3.50;99.90;;;;;;4958726;29;19919;-90
2023/03/27 10:11:23;;;;;;;;;;;3.50;99.90;;;;;;4957375;28;19927;-90
2023/03/27 10:13:58;;;;;;;;;;;3.50;99.90;;;;;;4977159;28;19914;-89
2023/03/27 10:16:29;;;;;;;;;;;3.50;99.90;;;;;;4969943;28;19926;-90
2023/03/27 10:19:05;;;;;;;;;;;3.50;99.90;;;;;;4975060;28;20007;-90
2023/03/27 10:21:41;;;;;;;;;;;3.50;99.90;;;;;;4978236;28;19927;-92
2023/03/27 10:24:18;;;;;;;;;;;3.50;99.90;;;;;;4973529;28;19919;-89
2023/03/27 10:27:18;;;;;;;;;;;3.50;99.90;;;;;;4961420;28;19981;-91
2023/03/27 10:30:24;;;;;;;;;;;3.50;99.90;;;;;;4960658;28;19938;-90
2023/03/27 10:32:54;;;;;;;;;;;3.50;99.90;;;;;;4978861;28;19915;-89
2023/03/27 10:35:43;;;;;;;;;;;3.50;99.90;;;;;;4958119;28;19938;-92
2023/03/27 10:38:18;;;;;;;;;;;3.60;99.90;;;;;;4983091;28;19927;-89
2023/03/27 10:40:55;;;;;;;;;;;3.60;99.90;;;;;;4977549;28;19919;-91
2023/03/27 10:43:36;;;;;;;;;;;3.60;99.90;;;;;;4970031;28;20033;-91
2023/03/27 10:46:05;;;;;;;;;;;3.50;99.90;;;;;;4956305;29;19926;-92
2023/03/27 10:48:39;;;;;;;;;;;3.60;99.90;;;;;;4972122;28;19990;-89
2023/03/27 10:51:21;;;;;;;;;;;3.50;99.90;;;;;;4973313;28;20014;-92
2023/03/27 10:53:56;;;;;;;;;;;3.60;99.90;;;;;;4960943;29;19927;-91
2023/03/27 10:56:38;;;;;;;;;;;3.60;99.90;;;;;;4956723;29;20555;-91
2023/03/27 10:59:08;;;;;;;;;;;3.60;99.90;;;;;;4969401;28;19991;-90
2023/03/27 11:01:39;;;;;;;;;;;3.60;99.90;;;;;;4948715;28;19926;-91
2023/03/27 11:04:12;;;;;;;;;;;3.60;99.90;;;;;;4970308;28;20456;-89
2023/03/27 11:06:48;;;;;;;;;;;3.60;99.90;;;;;;4974880;28;19918;-91
2023/03/27 11:09:22;;;;;;;;;;;3.60;99.90;;;;;;4966834;28;19915;-91
2023/03/27 11:12:10;;;;;;;;;;;3.60;99.90;;;;;;4972587;28;19927;-91
2023/03/27 11:14:47;;;;;;;;;;;3.60;99.90;;;;;;4954226;29;19950;-89
2023/03/27 11:17:21;;;;;;;;;;;3.60;99.90;;;;;;4967253;29;19933;-91
2023/03/27 11:20:20;;;;;;;;;;;3.60;99.90;;;;;;4955164;29;19931;-90
2023/03/27 11:23:09;;;;;;;;;;;3.60;99.90;;;;;;4954525;28;19941;-91
2023/03/27 11:25:46;;;;;;;;;;;3.60;99.90;;;;;;4956096;28;19946;-92
2023/03/27 11:28:21;;;;;;;;;;;3.60;99.90;;;;;;4957493;29;19958;-89
2023/03/27 11:30:51;;;;;;;;;;;3.60;99.90;;;;;;4973113;28;20371;-90
2023/03/27 11:33:24;;;;;;;;;;;3.60;99.90;;;;;;4967885;28;20337;-88
2023/03/27 11:36:00;;;;;;;;;;;3.60;99.90;;;;;;4973254;28;19954;-91
2023/03/27 11:38:56;;;;;;;;;;;3.60;99.90;;;;;;4963919;28;19922;-92
2023/03/27 11:41:25;;;;;;;;;;;3.60;99.90;;;;;;4956849;28;19911;-91
2023/03/27 11:43:53;;;;;;;;;;;3.70;99.90;;;;;;4961586;28;19969;-88
2023/03/27 11:47:03;;;;;;;;;;;3.70;99.90;;;;;;4955474;29;19926;-91
2023/03/27 11:49:39;;;;;;;;;;;3.70;99.90;;;;;;4962439;29;19919;-91
2023/03/27 11:52:15;;;;;;;;;;;3.70;99.90;;;;;;4976774;28;19974;-91
2023/03/27 11:54:49;;;;;;;;;;;3.70;99.90;;;;;;4972134;28;19926;-89
2023/03/27 11:57:22;;;;;;;;;;;3.80;99.90;;;;;;4971308;28;19987;-90
2023/03/27 12:00:25;;;;;;;;;;;3.70;99.90;;;;;;4952272;29;19950;-89
2023/03/27 12:05:41;;;;;;;;;;;3.80;99.90;;;;;;4946540;28;19926;-80
2023/03/27 12:08:14;;;;;;;;;;;3.80;99.90;;;;;;4916813;29;20014;-78
2023/03/27 12:10:46;;;;;;;;;;;3.80;99.90;;;;;;4918698;29;19934;-77
2023/03/27 12:13:43;;;;;;;;;;;3.80;99.90;;;;;;4937744;29;19927;-78
2023/03/27 12:16:37;;;;;;;;;;;3.80;99.90;;;;;;4915697;29;19968;-78
2023/03/27 12:19:12;;;;;;;;;;;3.80;99.90;;;;;;4939264;29;19950;-79
2023/03/27 12:21:47;;;;;;;;;;;3.80;99.90;;;;;;4919506;29;19927;-78
2023/03/27 12:24:33;;;;;;;;;;;3.80;99.90;;;;;;4916701;29;19935;-78
2023/03/27 12:27:36;;;;;;;;;;;3.80;99.90;;;;;;4913017;29;19934;-78
2023/03/27 12:30:36;;;;;;;;;;;3.80;99.90;;;;;;4919198;29;19927;-79
2023/03/27 12:33:10;;;;;;;;;;;3.80;99.90;;;;;;4914868;29;20564;-78
2023/03/27 12:35:39;;;;;;;;;;;3.90;99.90;;;;;;4936857;29;19933;-79
2023/03/27 12:38:08;;;;;;;;;;;3.90;99.90;;;;;;4915744;29;20382;-78
2023/03/27 12:40:40;;;;;;;;;;;4.00;99.90;;;;;;4926621;29;19927;-78
2023/03/27 12:43:23;;;;;;;;;;;4.00;99.90;;;;;;4910729;29;19931;-78
2023/03/27 12:46:17;;;;;;;;;;;4.00;99.90;;;;;;4914453;29;19927;-78
2023/03/27 12:48:54;;;;;;;;;;;4.10;99.90;;;;;;4908928;29;19931;-78
2023/03/27 12:51:36;;;;;;;;;;;4.10;99.90;;;;;;4928555;29;20041;-78
2023/03/27 12:54:12;;;;;;;;;;;4.10;99.90;;;;;;4917590;29;19949;-78
2023/03/27 12:56:42;;;;;;;;;;;4.20;99.90;;;;;;4923154;29;19927;-78
2023/03/27 12:59:14;;;;;;;;;;;4.20;99.90;;;;;;4923477;29;20428;-78
2023/03/27 13:02:00;;;;;;;;;;;4.20;99.90;;;;;;4913971;29;20398;-77
2023/03/27 13:04:40;;;;;;;;;;;4.20;99.90;;;;;;4918494;29;20014;-78
2023/03/27 13:07:12;;;;;;;;;;;4.30;99.90;;;;;;4918602;29;20022;-78
2023/03/27 13:10:08;;;;;;;;;;;4.30;99.90;;;;;;4922210;29;19942;-78
2023/03/27 13:12:48;;;;;;;;;;;4.40;99.90;;;;;;4923955;29;19938;-79
2023/03/27 13:15:20;;;;;;;;;;;4.40;99.90;;;;;;4919026;29;19927;-78
2023/03/27 13:17:56;;;;;;;;;;;4.40;99.90;;;;;;4912886;29;19926;-78
2023/03/27 13:20:29;;;;;;;;;;;4.40;99.90;;;;;;4921794;29;19983;-77
2023/03/27 13:23:02;;;;;;;;;;;4.50;99.90;;;;;;4920581;29;19930;-78
2023/03/27 13:25:34;;;;;;;;;;;4.50;99.90;;;;;;4915563;29;19935;-79
2023/03/27 13:28:17;;;;;;;;;;;4.50;99.90;;;;;;4929624;29;20306;-80
2023/03/27 13:30:56;;;;;;;;;;;4.50;99.90;;;;;;4918046;29;19945;-78
2023/03/27 13:34:04;;;;;;;;;;;4.50;99.90;;;;;;4925100;29;19927;-79
2023/03/27 13:36:32;;;;;;;;;;;4.50;99.90;;;;;;4922858;29;19935;-78
2023/03/27 13:39:14;;;;;;;;;;;4.50;99.90;;;;;;4929660;29;20041;-79
2023/03/27 13:42:01;;;;;;;;;;;4.50;99.90;;;;;;4933719;28;19934;-78
2023/03/27 13:44:40;;;;;;;;;;;4.50;99.90;;;;;;4911011;29;20448;-79
2023/03/27 13:47:12;;;;;;;;;;;4.50;99.90;;;;;;4925979;29;19927;-80
2023/03/27 13:49:47;;;;;;;;;;;4.50;99.90;;;;;;4922359;29;19927;-78
2023/03/27 13:52:32;;;;;;;;;;;4.60;99.90;;;;;;4915893;29;20088;-79
2023/03/27 13:55:20;;;;;;;;;;;4.60;99.90;;;;;;4919999;29;19927;-78
2023/03/27 13:58:13;;;;;;;;;;;4.70;99.90;;;;;;4912430;29;20394;-78
2023/03/27 14:00:47;;;;;;;;;;;4.70;99.90;;;;;;4931934;29;19970;-79
2023/03/27 14:03:35;;;;;;;;;;;4.80;99.90;;;;;;4926300;29;19970;-78
2023/03/27 14:06:12;;;;;;;;;;;4.70;99.90;;;;;;4925586;29;19949;-78
2023/03/27 14:08:47;;;;;;;;;;;4.70;99.90;;;;;;4909883;29;19958;-79
2023/03/27 14:11:38;;;;;;;;;;;4.70;99.90;;;;;;4921973;29;19935;-78
2023/03/27 14:14:19;;;;;;;;;;;4.70;99.90;;;;;;4924486;29;19938;-78
2023/03/27 14:16:59;;;;;;;;;;;4.70;99.90;;;;;;4903687;29;19931;-78
2023/03/27 14:19:49;;;;;;;;;;;4.70;99.90;;;;;;4929933;29;20023;-78
2023/03/27 14:22:25;;;;;;;;;;;4.70;99.90;;;;;;4912752;29;19935;-79
2023/03/27 14:24:57;;;;;;;;;;;4.70;99.90;;;;;;4929700;29;19927;-78
2023/03/27 14:27:34;;;;;;;;;;;4.70;99.90;;;;;;4911782;29;19968;-78
2023/03/27 14:30:07;;;;;;;;;;;4.70;99.90;;;;;;4914688;29;19935;-78
2023/03/27 14:32:38;;;;;;;;;;;4.70;99.90;;;;;;4914021;29;19935;-78
2023/03/27 14:35:21;;;;;;;;;;;4.70;99.90;;;;;;4912310;29;20412;-78
2023/03/27 14:37:55;;;;;;;;;;;4.70;99.90;;;;;;4913447;29;19927;-77
2023/03/27 14:40:32;;;;;;;;;;;4.70;99.90;;;;;;4917540;29;20405;-78
2023/03/27 14:43:05;;;;;;;;;;;4.70;99.90;;;;;;4910090;29;19970;-78
2023/03/27 14:45:32;;;;;;;;;;;4.70;99.90;;;;;;4921397;29;19994;-78
2023/03/27 14:48:05;;;;;;;;;;;4.70;99.90;;;;;;4914338;29;20021;-79
2023/03/27 14:50:42;;;;;;;;;;;4.60;99.90;;;;;;4912767;29;20534;-78
2023/03/27 14:53:13;;;;;;;;;;;4.60;99.90;;;;;;4931164;29;19935;-78
2023/03/27 14:56:03;;;;;;;;;;;4.60;99.90;;;;;;4896071;29;19933;-78
2023/03/27 14:58:51;;;;;;;;;;;4.70;99.90;;;;;;4894534;29;19975;-80
2023/03/27 15:01:19;;;;;;;;;;;4.70;99.90;;;;;;4908710;29;19934;-77
2023/03/27 15:03:53;;;;;;;;;;;4.70;99.90;;;;;;4908609;29;19939;-79
2023/03/27 15:06:25;;;;;;;;;;;4.70;99.90;;;;;;4922216;29;20382;-80
2023/03/27 15:08:57;;;;;;;;;;;4.70;99.90;;;;;;4907566;29;19932;-79
2023/03/27 15:11:46;;;;;;;;;;;4.70;99.90;;;;;;4912647;29;20326;-79
2023/03/27 15:14:24;;;;;;;;;;;4.70;99.90;;;;;;4920532;29;19927;-79
2023/03/27 15:16:53;;;;;;;;;;;4.70;99.90;;;;;;4903547;29;19927;-80
2023/03/27 15:19:24;;;;;;;;;;;4.70;99.90;;;;;;4910313;29;20000;-80